K16 weather

Becks Grove Airport
Rome, New York, United States

Public forecast

Using degrees Fahrenheit for public forecast. Weather courtesy of forecast.io.

Closest aviation weather report (METAR) to Becks Grove Airport

Closest report is Griffiss International Airport, 8.7 nm (16.2 km) E. Retrieved 2019/12/14 22:53 UTC (39 minutes ago):

KRME 142253Z 25010G17KT 4SM RA BR BKN005 OVC022 05/05 A2914 RMK AO2 SLP870 P0007 T00500050

Closest aviation forecast (TAF) to Becks Grove Airport

Closest forecast is Griffiss International Airport, 8.7 nm (16.2 km) E. Retrieved 2019/12/14 18:52 UTC (5 hours ago):

TAF KRME 141750Z 1418/1518 11005KT P6SM SCT007 OVC015 TEMPO 1418/1420 5SM -DZ BR OVC007 FM142000 13006KT 2SM -RA BR OVC005 FM150000 27010KT 2SM -RA BR OVC005 FM150300 27010G20KT 2SM -SNRA BR OVC007 FM150500 27015G25KT 2SM -SN BR OVC008 FM150900 27015G25KT 3SM -SHSN BR OVC012